createdAt,value
2022-10-22T00:01:12.942Z,0.75
2022-10-22T00:03:41.267Z,0.90
2022-10-22T00:06:10.978Z,0.70
2022-10-22T00:08:39.295Z,0.90
2022-10-22T00:11:14.601Z,1.05
2022-10-22T00:13:43.610Z,0.60
2022-10-22T00:16:12.040Z,1.00
2022-10-22T00:18:40.640Z,0.50
2022-10-22T00:21:10.617Z,0.60
2022-10-22T00:23:42.582Z,0.50
2022-10-22T00:26:11.380Z,0.50
2022-10-22T00:28:40.342Z,0.50
2022-10-22T00:31:08.535Z,0.52
2022-10-22T00:33:36.738Z,0.50
2022-10-22T00:36:05.427Z,0.50
2022-10-22T00:38:35.008Z,0.60
2022-10-22T00:41:03.243Z,0.60
2022-10-22T00:43:31.549Z,0.47
2022-10-22T00:45:59.709Z,0.43
2022-10-22T00:48:32.123Z,0.60
2022-10-22T00:51:04.041Z,1.17
2022-10-22T00:53:42.550Z,1.27
2022-10-22T00:56:11.712Z,0.57
2022-10-22T00:58:46.358Z,0.77
2022-10-22T01:01:20.071Z,0.90
2022-10-22T01:03:48.765Z,0.68
2022-10-22T01:06:24.989Z,0.70
2022-10-22T01:09:06.318Z,0.50
2022-10-22T01:11:48.830Z,0.50
2022-10-22T01:14:26.263Z,0.50
2022-10-22T01:17:05.119Z,0.52
2022-10-22T01:19:51.926Z,0.68
2022-10-22T01:22:30.083Z,0.55
2022-10-22T01:25:06.591Z,0.50
2022-10-22T01:27:56.729Z,0.60
2022-10-22T01:30:27.175Z,0.55
2022-10-22T01:33:00.516Z,1.10
2022-10-22T01:38:10.225Z,0.65
2022-10-22T01:40:38.804Z,0.63
2022-10-22T01:43:10.161Z,0.50
2022-10-22T01:45:44.531Z,0.55
2022-10-22T01:48:32.041Z,0.52
2022-10-22T01:51:21.208Z,0.50
2022-10-22T01:53:55.321Z,0.55
2022-10-22T01:56:41.237Z,0.70
2022-10-22T01:59:18.831Z,0.50
2022-10-22T02:01:59.107Z,0.60
2022-10-22T02:04:31.145Z,0.60
2022-10-22T02:07:05.864Z,0.55
2022-10-22T02:09:34.949Z,0.63
2022-10-22T02:12:07.553Z,0.57
2022-10-22T02:14:40.863Z,0.50
2022-10-22T02:17:14.838Z,0.55
2022-10-22T02:19:51.829Z,0.60
2022-10-22T02:22:20.839Z,0.52
2022-10-22T02:24:51.204Z,0.80
2022-10-22T02:27:27.061Z,0.90
2022-10-22T02:30:02.617Z,0.50
2022-10-22T02:32:37.934Z,0.60
2022-10-22T02:35:09.122Z,0.60
2022-10-22T02:37:37.977Z,0.70
2022-10-22T02:40:07.620Z,0.60
2022-10-22T02:42:37.454Z,0.85
2022-10-22T02:45:07.214Z,0.60
2022-10-22T02:47:36.830Z,0.47
2022-10-22T02:50:09.421Z,0.50
2022-10-22T02:52:39.364Z,0.80
2022-10-22T02:55:08.933Z,0.93
2022-10-22T02:57:37.391Z,0.80
2022-10-22T03:00:07.298Z,0.60
2022-10-22T03:02:36.840Z,0.70
2022-10-22T03:05:05.987Z,0.93
2022-10-22T03:07:34.458Z,1.30
2022-10-22T03:10:02.775Z,0.47
2022-10-22T03:12:30.960Z,0.55
2022-10-22T03:14:59.151Z,0.95
2022-10-22T03:17:27.363Z,0.77
2022-10-22T03:19:56.875Z,0.55
2022-10-22T03:22:28.522Z,0.65
2022-10-22T03:25:01.208Z,1.35
2022-10-22T03:27:31.385Z,1.05
2022-10-22T03:29:59.940Z,0.95
2022-10-22T03:32:28.113Z,0.60
2022-10-22T03:34:57.679Z,0.80
2022-10-22T03:37:28.014Z,1.13
2022-10-22T03:39:56.616Z,0.70
2022-10-22T03:42:25.446Z,0.70
2022-10-22T03:44:54.237Z,0.60
2022-10-22T03:47:24.427Z,0.73
2022-10-22T03:49:52.688Z,0.50
2022-10-22T03:52:22.256Z,0.60
2022-10-22T03:54:50.466Z,0.60
2022-10-22T03:57:18.639Z,0.50
2022-10-22T03:59:47.832Z,0.57
2022-10-22T04:02:16.034Z,0.50
2022-10-22T04:04:44.242Z,0.55
2022-10-22T04:07:12.381Z,1.10
2022-10-22T04:09:41.977Z,1.20
2022-10-22T04:12:10.456Z,0.50
2022-10-22T04:14:38.678Z,0.50
2022-10-22T04:17:06.883Z,0.68
2022-10-22T04:19:35.726Z,1.20
2022-10-22T04:22:03.891Z,0.55
2022-10-22T04:24:33.294Z,0.98
2022-10-22T04:27:02.830Z,0.70
2022-10-22T04:29:31.044Z,0.60
2022-10-22T04:31:59.223Z,0.50
2022-10-22T04:34:29.819Z,0.50
2022-10-22T04:36:58.001Z,1.10
2022-10-22T04:39:26.160Z,0.60
2022-10-22T04:41:54.326Z,0.60
2022-10-22T04:44:24.197Z,0.70
2022-10-22T04:46:52.552Z,1.17
2022-10-22T04:49:20.720Z,1.45
2022-10-22T04:51:48.973Z,1.33
2022-10-22T04:54:17.151Z,0.90
2022-10-22T04:56:45.426Z,1.40
2022-10-22T04:59:14.010Z,1.40
2022-10-22T05:01:45.575Z,0.80
2022-10-22T05:04:17.803Z,1.27
2022-10-22T05:06:46.592Z,1.10
2022-10-22T05:09:18.397Z,1.05
2022-10-22T05:11:49.754Z,0.90
2022-10-22T05:14:20.914Z,1.30
2022-10-22T05:16:50.947Z,1.05
2022-10-22T05:19:23.832Z,0.70
2022-10-22T05:21:52.212Z,1.27
2022-10-22T05:24:20.455Z,1.33
2022-10-22T05:26:50.959Z,1.10
2022-10-22T05:29:19.306Z,1.20
2022-10-22T05:31:47.526Z,1.27
2022-10-22T05:34:18.016Z,0.90
2022-10-22T05:36:46.655Z,1.20
2022-10-22T05:39:14.801Z,0.70
2022-10-22T05:41:43.101Z,0.70
2022-10-22T05:44:13.779Z,0.73
2022-10-22T05:46:43.375Z,0.90
2022-10-22T05:49:16.416Z,0.70
2022-10-22T05:51:44.606Z,1.08
2022-10-22T05:54:18.191Z,1.20
2022-10-22T05:56:46.799Z,1.23
2022-10-22T05:59:15.143Z,1.52
2022-10-22T06:01:43.338Z,1.30
2022-10-22T06:04:13.984Z,1.35
2022-10-22T06:06:46.604Z,1.10
2022-10-22T06:09:19.070Z,1.57
2022-10-22T06:11:48.625Z,1.63
2022-10-22T06:14:17.280Z,1.50
2022-10-22T06:16:45.489Z,1.30
2022-10-22T06:19:15.735Z,2.00
2022-10-22T06:21:46.190Z,1.70
2022-10-22T06:24:15.158Z,1.90
2022-10-22T06:26:43.916Z,1.90
2022-10-22T06:29:12.449Z,1.90
2022-10-22T06:31:40.600Z,1.73
2022-10-22T06:34:13.449Z,2.08
2022-10-22T06:36:42.797Z,1.90
2022-10-22T06:39:14.565Z,1.52
2022-10-22T06:41:42.943Z,1.00
2022-10-22T06:44:15.777Z,1.50
2022-10-22T06:46:43.972Z,1.60
2022-10-22T06:49:15.304Z,1.37
2022-10-22T06:51:43.555Z,1.00
2022-10-22T06:54:13.483Z,1.65
2022-10-22T06:56:41.880Z,1.70
2022-10-22T06:59:10.144Z,1.48
2022-10-22T07:01:39.714Z,1.58
2022-10-22T07:04:08.966Z,1.70
2022-10-22T07:06:37.491Z,1.90
2022-10-22T07:09:06.190Z,1.50
2022-10-22T07:11:45.748Z,1.38
2022-10-22T07:14:15.872Z,1.50
2022-10-22T07:16:45.717Z,0.80
2022-10-22T07:19:14.941Z,1.25
2022-10-22T07:21:43.098Z,1.40
2022-10-22T07:24:11.267Z,1.20
2022-10-22T07:26:40.804Z,1.20
2022-10-22T07:29:10.021Z,1.10
2022-10-22T07:31:38.190Z,1.17
2022-10-22T07:34:06.720Z,1.20
2022-10-22T07:36:35.066Z,0.95
2022-10-22T07:39:04.498Z,1.33
2022-10-22T07:41:33.194Z,1.40
2022-10-22T07:44:02.751Z,0.90
2022-10-22T07:46:30.920Z,1.27
2022-10-22T07:48:59.037Z,0.60
2022-10-22T07:51:27.820Z,1.20
2022-10-22T07:53:56.115Z,1.00
2022-10-22T07:56:24.414Z,1.05
2022-10-22T07:58:52.645Z,0.88
2022-10-22T08:01:22.257Z,1.13
2022-10-22T08:03:50.465Z,1.20
2022-10-22T08:06:18.943Z,0.70
2022-10-22T08:08:47.181Z,1.15
2022-10-22T08:11:15.421Z,0.90
2022-10-22T08:13:45.624Z,0.60
2022-10-22T08:16:15.229Z,1.45
2022-10-22T08:18:45.101Z,1.10
2022-10-22T08:21:13.553Z,1.15
2022-10-22T08:23:41.698Z,1.00
2022-10-22T08:26:10.324Z,1.10
2022-10-22T08:28:39.335Z,0.95
2022-10-22T08:31:08.541Z,1.30
2022-10-22T08:33:38.784Z,1.00
2022-10-22T08:36:10.024Z,1.48
2022-10-22T08:38:38.651Z,1.37
2022-10-22T08:41:14.675Z,1.17
2022-10-22T08:44:28.114Z,0.93
2022-10-22T08:47:21.393Z,1.27
2022-10-22T08:49:50.761Z,1.02
2022-10-22T08:52:21.793Z,1.00
2022-10-22T08:54:54.248Z,0.50
2022-10-22T08:57:52.490Z,1.47
2022-10-22T09:00:29.737Z,1.20
2022-10-22T09:03:16.309Z,1.30
2022-10-22T09:05:56.098Z,1.33
2022-10-22T09:08:25.969Z,1.30
2022-10-22T09:11:02.805Z,1.40
2022-10-22T09:13:31.589Z,1.00
2022-10-22T09:16:13.434Z,0.95
2022-10-22T09:18:58.112Z,1.40
2022-10-22T09:21:35.976Z,1.17
2022-10-22T09:24:14.821Z,1.00
2022-10-22T09:26:43.714Z,1.20
2022-10-22T09:29:20.925Z,0.82
2022-10-22T09:31:49.327Z,0.60
2022-10-22T09:34:21.756Z,0.80
2022-10-22T09:36:59.835Z,1.20
2022-10-22T09:39:33.724Z,0.88
2022-10-22T09:42:02.023Z,0.95
2022-10-22T09:44:30.429Z,0.95
2022-10-22T09:46:58.578Z,0.90
2022-10-22T09:49:31.083Z,0.80
2022-10-22T09:52:01.538Z,0.70
2022-10-22T09:54:42.587Z,1.08
2022-10-22T09:57:17.818Z,0.60
2022-10-22T09:59:51.430Z,0.90
2022-10-22T10:02:37.605Z,0.80
2022-10-22T10:05:08.250Z,1.27
2022-10-22T10:07:37.717Z,1.20
2022-10-22T10:10:22.478Z,1.52
2022-10-22T10:12:58.524Z,1.20
2022-10-22T10:15:36.588Z,1.15
2022-10-22T10:18:17.609Z,1.33
2022-10-22T10:20:55.384Z,1.00
2022-10-22T10:23:32.559Z,1.17
2022-10-22T10:26:12.826Z,1.27
2022-10-22T10:29:05.468Z,1.00
2022-10-22T10:31:47.136Z,1.13
2022-10-22T10:34:28.392Z,1.20
2022-10-22T10:37:05.688Z,1.00
2022-10-22T10:39:50.915Z,0.80
2022-10-22T10:42:30.506Z,1.10
2022-10-22T10:45:13.521Z,0.90
2022-10-22T10:48:17.467Z,0.90
2022-10-22T10:51:00.897Z,1.08
2022-10-22T10:53:59.440Z,0.98
2022-10-22T10:56:40.105Z,0.93
2022-10-22T10:59:24.774Z,1.20
2022-10-22T11:02:32.075Z,0.98
2022-10-22T11:05:21.966Z,0.70
2022-10-22T11:07:57.337Z,0.88
2022-10-22T11:10:32.013Z,0.80
2022-10-22T11:13:11.996Z,1.05
2022-10-22T11:15:42.382Z,1.00
2022-10-22T11:18:21.653Z,0.98
2022-10-22T11:21:03.353Z,0.83
2022-10-22T11:23:39.052Z,0.93
2022-10-22T11:26:15.233Z,0.90
2022-10-22T11:28:50.754Z,0.70
2022-10-22T11:31:25.915Z,1.08
2022-10-22T11:34:04.898Z,0.90
2022-10-22T11:36:39.958Z,1.08
2022-10-22T11:39:08.229Z,0.90
2022-10-22T11:41:37.239Z,0.98
2022-10-22T11:44:22.030Z,1.00
2022-10-22T11:46:59.282Z,0.80
2022-10-22T11:49:42.234Z,1.33
2022-10-22T11:52:28.063Z,1.10
2022-10-22T11:54:58.779Z,0.70
2022-10-22T11:57:38.603Z,1.00
2022-10-22T12:00:31.636Z,1.33
2022-10-22T12:03:16.834Z,0.80
2022-10-22T12:05:46.072Z,0.90
2022-10-22T12:08:24.538Z,1.00
2022-10-22T12:11:14.564Z,0.90
2022-10-22T12:14:18.962Z,0.90
2022-10-22T12:16:57.347Z,0.83
2022-10-22T12:19:31.312Z,0.95
2022-10-22T12:22:07.427Z,1.00
2022-10-22T12:24:40.527Z,0.80
2022-10-22T12:27:23.089Z,0.82
2022-10-22T12:29:56.573Z,1.45
2022-10-22T12:32:30.095Z,1.37
2022-10-22T12:35:05.331Z,1.15
2022-10-22T12:37:36.756Z,1.25
2022-10-22T12:40:16.918Z,1.33
2022-10-22T12:42:50.988Z,1.10
2022-10-22T12:45:19.942Z,1.03
2022-10-22T12:47:49.224Z,1.08
2022-10-22T12:50:27.872Z,1.10
2022-10-22T12:52:56.855Z,1.00
2022-10-22T12:55:27.881Z,0.82
2022-10-22T12:57:56.381Z,0.82
2022-10-22T13:00:28.692Z,0.83
2022-10-22T13:03:01.425Z,1.00
2022-10-22T13:05:38.880Z,1.30
2022-10-22T13:08:12.311Z,1.30
2022-10-22T13:10:43.180Z,0.98
2022-10-22T13:13:45.671Z,1.35
2022-10-22T13:16:24.347Z,1.60
2022-10-22T13:18:54.259Z,1.13
2022-10-22T13:21:34.233Z,1.40
2022-10-22T13:24:04.732Z,1.10
2022-10-22T13:26:36.012Z,1.20
2022-10-22T13:29:11.880Z,1.13
2022-10-22T13:31:47.278Z,1.45
2022-10-22T13:34:19.423Z,1.20
2022-10-22T13:36:50.154Z,1.20
2022-10-22T13:39:20.245Z,2.63
2022-10-22T13:41:50.284Z,1.60
2022-10-22T13:44:18.789Z,1.20
2022-10-22T13:46:47.974Z,1.20
2022-10-22T13:49:19.827Z,1.25
2022-10-22T13:51:50.750Z,0.93
2022-10-22T13:54:22.755Z,1.25
2022-10-22T13:56:50.939Z,1.10
2022-10-22T13:59:22.820Z,1.00
2022-10-22T14:01:53.219Z,1.13
2022-10-22T14:04:21.462Z,1.30
2022-10-22T14:06:51.055Z,1.15
2022-10-22T14:09:19.697Z,1.08
2022-10-22T14:11:47.898Z,1.10
2022-10-22T14:14:17.334Z,1.10
2022-10-22T14:16:45.950Z,1.02
2022-10-22T14:19:18.540Z,1.17
2022-10-22T14:21:47.092Z,1.17
2022-10-22T14:24:16.630Z,1.10
2022-10-22T14:26:44.842Z,1.20
2022-10-22T14:29:13.015Z,1.00
2022-10-22T14:31:44.246Z,1.10
2022-10-22T14:34:14.641Z,1.30
2022-10-22T14:36:44.578Z,1.10
2022-10-22T14:39:12.904Z,1.02
2022-10-22T14:41:43.553Z,1.30
2022-10-22T14:44:14.338Z,1.25
2022-10-22T14:46:44.193Z,1.00
2022-10-22T14:49:12.601Z,1.08
2022-10-22T14:51:40.781Z,1.13
2022-10-22T14:54:09.098Z,1.30
2022-10-22T14:59:12.336Z,1.50
2022-10-22T15:01:42.094Z,1.30
2022-10-22T15:04:10.520Z,1.20
2022-10-22T15:06:38.710Z,1.20
2022-10-22T15:09:06.947Z,1.08
2022-10-22T15:11:35.153Z,1.20
2022-10-22T15:14:03.303Z,1.27
2022-10-22T15:16:33.059Z,0.93
2022-10-22T15:19:01.170Z,1.10
2022-10-22T15:21:29.530Z,1.30
2022-10-22T15:23:57.712Z,1.30
2022-10-22T15:26:25.929Z,1.10
2022-10-22T15:28:54.641Z,1.08
2022-10-22T15:31:48.901Z,1.10
2022-10-22T15:34:23.195Z,1.20
2022-10-22T15:36:51.800Z,1.05
2022-10-22T15:39:20.007Z,1.10
2022-10-22T15:41:49.334Z,1.13
2022-10-22T15:44:20.134Z,1.10
2022-10-22T15:49:24.304Z,1.20
2022-10-22T15:51:52.948Z,1.00
2022-10-22T15:54:25.329Z,1.10
2022-10-22T15:56:53.860Z,1.00
2022-10-22T15:59:22.066Z,1.00
2022-10-22T16:01:52.166Z,1.17
2022-10-22T16:04:20.437Z,1.02
2022-10-22T16:06:52.440Z,1.20
2022-10-22T16:09:23.579Z,1.20
2022-10-22T16:14:28.686Z,1.20
2022-10-22T16:16:59.610Z,1.23
2022-10-22T16:19:27.755Z,1.00
2022-10-22T16:21:59.402Z,1.10
2022-10-22T16:24:27.569Z,1.00
2022-10-22T16:26:55.794Z,1.30
2022-10-22T16:29:23.991Z,1.20
2022-10-22T16:31:52.199Z,1.35
2022-10-22T16:34:21.730Z,1.30
2022-10-22T16:39:20.608Z,1.50
2022-10-22T16:41:48.801Z,1.38
2022-10-22T16:44:17.037Z,1.33
2022-10-22T16:46:45.218Z,1.42
2022-10-22T16:49:13.491Z,1.60
2022-10-22T16:51:43.075Z,1.50
2022-10-22T16:54:14.291Z,1.10
2022-10-22T16:56:42.486Z,1.00
2022-10-22T16:59:10.686Z,1.08
2022-10-22T17:01:41.206Z,0.75
2022-10-22T17:04:10.119Z,0.88
2022-10-22T17:06:38.332Z,0.90
2022-10-22T17:09:07.957Z,0.80
2022-10-22T17:11:39.153Z,0.90
2022-10-22T17:14:09.858Z,0.77
2022-10-22T17:16:38.048Z,0.57
2022-10-22T17:19:06.382Z,0.70
2022-10-22T17:21:34.958Z,0.60
2022-10-22T17:24:03.123Z,0.63
2022-10-22T17:26:34.649Z,0.70
2022-10-22T17:29:02.832Z,0.70
2022-10-22T17:31:34.296Z,0.90
2022-10-22T17:34:02.920Z,0.80
2022-10-22T17:36:35.681Z,0.60
2022-10-22T17:39:08.038Z,0.70
2022-10-22T17:41:38.778Z,0.90
2022-10-22T17:44:09.856Z,0.80
2022-10-22T17:46:38.875Z,0.60
2022-10-22T17:49:13.672Z,0.70
2022-10-22T17:51:42.023Z,0.70
2022-10-22T17:54:10.486Z,0.55
2022-10-22T17:56:40.777Z,0.65
2022-10-22T17:59:09.558Z,0.60
2022-10-22T18:01:43.399Z,0.55
2022-10-22T18:04:16.473Z,0.60
2022-10-22T18:06:46.154Z,0.73
2022-10-22T18:09:18.457Z,0.90
2022-10-22T18:11:49.115Z,0.63
2022-10-22T18:14:19.183Z,0.80
2022-10-22T18:16:48.268Z,0.70
2022-10-22T18:19:18.983Z,0.82
2022-10-22T18:21:47.461Z,0.80
2022-10-22T18:24:16.907Z,0.70
2022-10-22T18:26:45.799Z,0.80
2022-10-22T18:29:19.754Z,0.57
2022-10-22T18:31:48.388Z,0.68
2022-10-22T18:34:20.250Z,0.60
2022-10-22T18:36:51.287Z,0.70
2022-10-22T18:39:19.535Z,0.70
2022-10-22T18:41:47.895Z,0.70
2022-10-22T18:44:17.950Z,0.60
2022-10-22T18:46:46.196Z,0.70
2022-10-22T18:49:19.683Z,0.60
2022-10-22T18:51:52.624Z,0.65
2022-10-22T18:54:23.684Z,0.60
2022-10-22T18:56:52.876Z,0.60
2022-10-22T18:59:26.112Z,0.60
2022-10-22T19:01:55.070Z,0.60
2022-10-22T19:04:23.228Z,0.60
2022-10-22T19:06:51.422Z,0.70
2022-10-22T19:09:19.671Z,0.50
2022-10-22T19:11:47.898Z,0.70
2022-10-22T19:14:19.402Z,0.60
2022-10-22T19:16:49.571Z,0.60
2022-10-22T19:19:20.263Z,0.80
2022-10-22T19:21:49.070Z,0.70
2022-10-22T19:24:19.655Z,0.80
2022-10-22T19:26:49.824Z,0.80
2022-10-22T19:29:20.176Z,0.88
2022-10-22T19:31:51.641Z,0.73
2022-10-22T19:34:20.832Z,0.70
2022-10-22T19:36:51.619Z,0.70
2022-10-22T19:39:20.389Z,0.73
2022-10-22T19:41:48.897Z,0.65
2022-10-22T19:44:17.349Z,0.60
2022-10-22T19:46:45.916Z,0.60
2022-10-22T19:49:18.935Z,0.70
2022-10-22T19:51:50.543Z,0.70
2022-10-22T19:54:20.489Z,0.70
2022-10-22T19:56:50.381Z,0.70
2022-10-22T19:59:20.647Z,0.70
2022-10-22T20:01:49.098Z,0.75
2022-10-22T20:04:19.381Z,0.60
2022-10-22T20:06:47.953Z,0.80
2022-10-22T20:09:16.160Z,0.60
2022-10-22T20:11:44.582Z,0.60
2022-10-22T20:14:13.916Z,0.50
2022-10-22T20:16:42.379Z,0.73
2022-10-22T20:19:13.480Z,0.65
2022-10-22T20:21:43.684Z,0.70
2022-10-22T20:24:12.868Z,0.70
2022-10-22T20:26:41.074Z,0.68
2022-10-22T20:29:09.460Z,0.60
2022-10-22T20:31:37.617Z,0.57
2022-10-22T20:34:05.826Z,0.70
2022-10-22T20:36:34.480Z,0.60
2022-10-22T20:39:07.335Z,0.75
2022-10-22T20:41:37.824Z,0.70
2022-10-22T20:44:06.365Z,0.60
2022-10-22T20:46:35.334Z,0.60
2022-10-22T20:49:07.088Z,0.70
2022-10-22T20:51:37.480Z,0.80
2022-10-22T20:54:08.689Z,1.20
2022-10-22T20:56:38.889Z,1.20
2022-10-22T20:59:10.653Z,1.20
2022-10-22T21:01:41.267Z,1.20
2022-10-22T21:04:09.910Z,1.20
2022-10-22T21:06:40.293Z,1.05
2022-10-22T21:09:12.034Z,1.10
2022-10-22T21:11:41.965Z,1.00
2022-10-22T21:14:12.588Z,0.90
2022-10-22T21:16:42.657Z,0.90
2022-10-22T21:19:11.082Z,0.77
2022-10-22T21:21:39.256Z,0.80
2022-10-22T21:24:09.589Z,0.95
2022-10-22T21:26:39.240Z,0.80
2022-10-22T21:29:07.568Z,0.95
2022-10-22T21:31:36.042Z,1.00
2022-10-22T21:34:04.488Z,0.80
2022-10-22T21:36:32.701Z,0.88
2022-10-22T21:39:02.414Z,0.80
2022-10-22T21:41:32.029Z,0.80
2022-10-22T21:44:00.601Z,0.73
2022-10-22T21:46:29.981Z,0.80
2022-10-22T21:49:01.456Z,0.70
2022-10-22T21:51:32.435Z,0.80
2022-10-22T21:54:01.153Z,0.70
2022-10-22T21:56:33.171Z,0.77
2022-10-22T21:59:02.246Z,0.70
2022-10-22T22:01:30.525Z,0.70
2022-10-22T22:03:59.414Z,1.00
2022-10-22T22:06:30.810Z,0.70
2022-10-22T22:09:01.745Z,0.90
2022-10-22T22:11:32.117Z,0.80
2022-10-22T22:14:00.704Z,0.80
2022-10-22T22:16:31.584Z,0.63
2022-10-22T22:19:01.702Z,0.77
2022-10-22T22:21:30.801Z,0.70
2022-10-22T22:23:59.729Z,0.70
2022-10-22T22:26:31.561Z,0.70
2022-10-22T22:29:01.200Z,0.70
2022-10-22T22:31:32.628Z,0.70
2022-10-22T22:34:02.615Z,0.70
2022-10-22T22:36:36.254Z,0.70
2022-10-22T22:39:06.087Z,0.67
2022-10-22T22:41:35.886Z,0.70
2022-10-22T22:44:04.162Z,0.80
2022-10-22T22:46:32.651Z,0.77
2022-10-22T22:49:00.844Z,0.60
2022-10-22T22:51:29.221Z,0.70
2022-10-22T22:54:00.230Z,0.70
2022-10-22T22:56:31.629Z,0.70
2022-10-22T22:59:01.312Z,0.70
2022-10-22T23:01:32.629Z,0.70
2022-10-22T23:04:04.161Z,0.80
2022-10-22T23:06:35.886Z,0.90
2022-10-22T23:09:05.764Z,0.80
2022-10-22T23:11:34.484Z,0.80
2022-10-22T23:14:06.879Z,0.70
2022-10-22T23:16:37.298Z,0.75
2022-10-22T23:19:06.506Z,0.80
2022-10-22T23:21:38.467Z,0.80
2022-10-22T23:24:10.155Z,0.70
2022-10-22T23:26:41.799Z,0.70
2022-10-22T23:29:15.093Z,0.70
2022-10-22T23:31:44.337Z,0.65
2022-10-22T23:34:15.259Z,0.65
2022-10-22T23:36:43.545Z,0.90
2022-10-22T23:39:15.185Z,0.77
2022-10-22T23:41:43.397Z,0.80
2022-10-22T23:44:13.401Z,0.77
2022-10-22T23:46:41.634Z,0.70
2022-10-22T23:49:11.526Z,0.80
2022-10-22T23:51:40.657Z,0.90
2022-10-22T23:54:13.243Z,0.90
2022-10-22T23:56:41.444Z,0.80
2022-10-22T23:59:10.201Z,0.73
